sensor_id;sensor_type;location;lat;lon;timestamp;temperature;humidity
54832;DHT22;40730;53.068;6.572;2022-09-09T00:01:51;13.80;99.90
54832;DHT22;40730;53.068;6.572;2022-09-09T00:04:38;13.80;99.90
54832;DHT22;40730;53.068;6.572;2022-09-09T00:07:21;13.80;99.90
54832;DHT22;40730;53.068;6.572;2022-09-09T00:12:51;13.80;99.90
54832;DHT22;40730;53.068;6.572;2022-09-09T00:15:23;13.70;99.90
54832;DHT22;40730;53.068;6.572;2022-09-09T00:21:07;13.70;99.90
54832;DHT22;40730;53.068;6.572;2022-09-09T00:23:54;13.70;99.90
54832;DHT22;40730;53.068;6.572;2022-09-09T00:26:25;13.60;99.90
54832;DHT22;40730;53.068;6.572;2022-09-09T00:31:41;13.60;99.90
54832;DHT22;40730;53.068;6.572;2022-09-09T00:34:17;13.60;99.90
54832;DHT22;40730;53.068;6.572;2022-09-09T00:36:43;13.40;99.90
54832;DHT22;40730;53.068;6.572;2022-09-09T00:44:37;13.50;99.90
54832;DHT22;40730;53.068;6.572;2022-09-09T00:47:18;13.50;99.90
54832;DHT22;40730;53.068;6.572;2022-09-09T00:50:08;13.50;99.90
54832;DHT22;40730;53.068;6.572;2022-09-09T00:52:48;13.50;99.90
54832;DHT22;40730;53.068;6.572;2022-09-09T00:55:48;13.50;99.90
54832;DHT22;40730;53.068;6.572;2022-09-09T00:58:14;13.50;99.90
54832;DHT22;40730;53.068;6.572;2022-09-09T01:00:44;13.50;99.90
54832;DHT22;40730;53.068;6.572;2022-09-09T01:03:42;13.40;99.90
54832;DHT22;40730;53.068;6.572;2022-09-09T01:11:25;13.30;99.90
54832;DHT22;40730;53.068;6.572;2022-09-09T01:14:14;13.40;99.90
54832;DHT22;40730;53.068;6.572;2022-09-09T01:16:44;13.30;99.90
54832;DHT22;40730;53.068;6.572;2022-09-09T01:19:18;13.30;99.90
54832;DHT22;40730;53.068;6.572;2022-09-09T01:22:06;13.30;99.90
54832;DHT22;40730;53.068;6.572;2022-09-09T01:24:37;13.30;99.90
54832;DHT22;40730;53.068;6.572;2022-09-09T01:27:06;13.30;99.90
54832;DHT22;40730;53.068;6.572;2022-09-09T01:29:32;13.20;99.90
54832;DHT22;40730;53.068;6.572;2022-09-09T01:32:01;13.30;99.90
54832;DHT22;40730;53.068;6.572;2022-09-09T01:34:33;13.20;99.90
54832;DHT22;40730;53.068;6.572;2022-09-09T01:37:09;13.30;99.90
54832;DHT22;40730;53.068;6.572;2022-09-09T01:39:37;13.30;99.90
54832;DHT22;40730;53.068;6.572;2022-09-09T01:42:05;13.30;99.90
54832;DHT22;40730;53.068;6.572;2022-09-09T01:44:34;13.30;99.90
54832;DHT22;40730;53.068;6.572;2022-09-09T01:47:01;13.30;99.90
54832;DHT22;40730;53.068;6.572;2022-09-09T01:49:26;13.30;99.90
54832;DHT22;40730;53.068;6.572;2022-09-09T01:51:54;13.30;99.90
54832;DHT22;40730;53.068;6.572;2022-09-09T01:54:24;13.30;99.90
54832;DHT22;40730;53.068;6.572;2022-09-09T01:59:48;13.30;99.90
54832;DHT22;40730;53.068;6.572;2022-09-09T02:02:29;13.40;99.90
54832;DHT22;40730;53.068;6.572;2022-09-09T02:05:28;13.40;99.90
54832;DHT22;40730;53.068;6.572;2022-09-09T02:08:03;13.40;99.90
54832;DHT22;40730;53.068;6.572;2022-09-09T02:10:45;13.40;99.90
54832;DHT22;40730;53.068;6.572;2022-09-09T02:13:15;13.50;99.90
54832;DHT22;40730;53.068;6.572;2022-09-09T02:15:52;13.50;99.90
54832;DHT22;40730;53.068;6.572;2022-09-09T02:18:32;13.50;99.90
54832;DHT22;40730;53.068;6.572;2022-09-09T02:20:58;13.60;99.90
54832;DHT22;40730;53.068;6.572;2022-09-09T02:23:25;13.60;99.90
54832;DHT22;40730;53.068;6.572;2022-09-09T02:25:51;13.70;99.90
54832;DHT22;40730;53.068;6.572;2022-09-09T02:28:19;13.70;99.90
54832;DHT22;40730;53.068;6.572;2022-09-09T02:30:48;13.70;99.90
54832;DHT22;40730;53.068;6.572;2022-09-09T02:33:19;13.80;99.90
54832;DHT22;40730;53.068;6.572;2022-09-09T02:35:45;13.80;99.90
54832;DHT22;40730;53.068;6.572;2022-09-09T02:38:13;13.90;99.90
54832;DHT22;40730;53.068;6.572;2022-09-09T02:40:40;13.90;99.90
54832;DHT22;40730;53.068;6.572;2022-09-09T02:43:06;13.90;99.90
54832;DHT22;40730;53.068;6.572;2022-09-09T02:45:41;14.00;99.90
54832;DHT22;40730;53.068;6.572;2022-09-09T02:48:14;14.00;99.90
54832;DHT22;40730;53.068;6.572;2022-09-09T02:50:52;14.00;99.90
54832;DHT22;40730;53.068;6.572;2022-09-09T02:53:24;14.10;99.90
54832;DHT22;40730;53.068;6.572;2022-09-09T02:55:59;14.10;99.90
54832;DHT22;40730;53.068;6.572;2022-09-09T02:58:27;14.20;99.90
54832;DHT22;40730;53.068;6.572;2022-09-09T03:00:53;14.20;99.90
54832;DHT22;40730;53.068;6.572;2022-09-09T03:03:19;14.20;99.90
54832;DHT22;40730;53.068;6.572;2022-09-09T03:05:46;14.20;99.90
54832;DHT22;40730;53.068;6.572;2022-09-09T03:08:13;14.20;99.90
54832;DHT22;40730;53.068;6.572;2022-09-09T03:10:38;14.20;99.90
54832;DHT22;40730;53.068;6.572;2022-09-09T03:13:04;14.20;99.90
54832;DHT22;40730;53.068;6.572;2022-09-09T03:15:32;14.20;99.90
54832;DHT22;40730;53.068;6.572;2022-09-09T03:17:58;14.20;99.90
54832;DHT22;40730;53.068;6.572;2022-09-09T03:20:28;14.20;99.90
54832;DHT22;40730;53.068;6.572;2022-09-09T03:22:55;14.30;99.90
54832;DHT22;40730;53.068;6.572;2022-09-09T03:25:22;14.20;99.90
54832;DHT22;40730;53.068;6.572;2022-09-09T03:27:52;14.20;99.90
54832;DHT22;40730;53.068;6.572;2022-09-09T03:30:23;14.10;99.90
54832;DHT22;40730;53.068;6.572;2022-09-09T03:32:49;14.10;99.90
54832;DHT22;40730;53.068;6.572;2022-09-09T03:35:15;14.10;99.90
54832;DHT22;40730;53.068;6.572;2022-09-09T03:37:41;14.10;99.90
54832;DHT22;40730;53.068;6.572;2022-09-09T03:40:07;14.10;99.90
54832;DHT22;40730;53.068;6.572;2022-09-09T03:42:35;14.10;99.90
54832;DHT22;40730;53.068;6.572;2022-09-09T03:45:03;14.00;99.90
54832;DHT22;40730;53.068;6.572;2022-09-09T03:47:29;14.10;99.90
54832;DHT22;40730;53.068;6.572;2022-09-09T03:49:55;14.10;99.90
54832;DHT22;40730;53.068;6.572;2022-09-09T03:52:21;14.10;99.90
54832;DHT22;40730;53.068;6.572;2022-09-09T03:54:50;14.10;99.90
54832;DHT22;40730;53.068;6.572;2022-09-09T03:57:16;14.00;99.90
54832;DHT22;40730;53.068;6.572;2022-09-09T03:59:43;14.10;99.90
54832;DHT22;40730;53.068;6.572;2022-09-09T04:02:09;14.10;99.90
54832;DHT22;40730;53.068;6.572;2022-09-09T04:04:35;14.00;99.90
54832;DHT22;40730;53.068;6.572;2022-09-09T04:07:01;14.00;99.90
54832;DHT22;40730;53.068;6.572;2022-09-09T04:09:26;14.00;99.90
54832;DHT22;40730;53.068;6.572;2022-09-09T04:11:52;14.00;99.90
54832;DHT22;40730;53.068;6.572;2022-09-09T04:14:18;14.00;99.90
54832;DHT22;40730;53.068;6.572;2022-09-09T04:16:44;14.00;99.90
54832;DHT22;40730;53.068;6.572;2022-09-09T04:19:11;14.00;99.90
54832;DHT22;40730;53.068;6.572;2022-09-09T04:21:40;13.90;99.90
54832;DHT22;40730;53.068;6.572;2022-09-09T04:24:07;13.90;99.90
54832;DHT22;40730;53.068;6.572;2022-09-09T04:26:34;14.00;99.90
54832;DHT22;40730;53.068;6.572;2022-09-09T04:29:00;14.00;99.90
54832;DHT22;40730;53.068;6.572;2022-09-09T04:31:26;13.90;99.90
54832;DHT22;40730;53.068;6.572;2022-09-09T04:33:52;13.90;99.90
54832;DHT22;40730;53.068;6.572;2022-09-09T04:36:18;14.00;99.90
54832;DHT22;40730;53.068;6.572;2022-09-09T04:38:45;13.90;99.90
54832;DHT22;40730;53.068;6.572;2022-09-09T04:41:11;13.90;99.90
54832;DHT22;40730;53.068;6.572;2022-09-09T04:43:38;13.90;99.90
54832;DHT22;40730;53.068;6.572;2022-09-09T04:46:04;13.90;99.90
54832;DHT22;40730;53.068;6.572;2022-09-09T04:48:29;13.90;99.90
54832;DHT22;40730;53.068;6.572;2022-09-09T04:51:01;13.90;99.90
54832;DHT22;40730;53.068;6.572;2022-09-09T04:53:28;13.90;99.90
54832;DHT22;40730;53.068;6.572;2022-09-09T04:56:05;13.90;99.90
54832;DHT22;40730;53.068;6.572;2022-09-09T04:58:31;13.80;99.90
54832;DHT22;40730;53.068;6.572;2022-09-09T05:01:07;13.80;99.90
54832;DHT22;40730;53.068;6.572;2022-09-09T05:03:33;13.80;99.90
54832;DHT22;40730;53.068;6.572;2022-09-09T05:06:10;13.80;99.90
54832;DHT22;40730;53.068;6.572;2022-09-09T05:08:37;13.80;99.90
54832;DHT22;40730;53.068;6.572;2022-09-09T05:11:12;13.80;99.90
54832;DHT22;40730;53.068;6.572;2022-09-09T05:13:38;13.80;99.90
54832;DHT22;40730;53.068;6.572;2022-09-09T05:16:04;13.80;99.90
54832;DHT22;40730;53.068;6.572;2022-09-09T05:18:29;13.80;99.90
54832;DHT22;40730;53.068;6.572;2022-09-09T05:20:59;13.80;99.90
54832;DHT22;40730;53.068;6.572;2022-09-09T05:23:25;13.70;99.90
54832;DHT22;40730;53.068;6.572;2022-09-09T05:25:57;13.80;99.90
54832;DHT22;40730;53.068;6.572;2022-09-09T05:28:24;13.80;99.90
54832;DHT22;40730;53.068;6.572;2022-09-09T05:30:59;13.80;99.90
54832;DHT22;40730;53.068;6.572;2022-09-09T05:33:26;13.80;99.90
54832;DHT22;40730;53.068;6.572;2022-09-09T05:36:02;13.80;99.90
54832;DHT22;40730;53.068;6.572;2022-09-09T05:38:29;13.80;99.90
54832;DHT22;40730;53.068;6.572;2022-09-09T05:40:55;13.80;99.90
54832;DHT22;40730;53.068;6.572;2022-09-09T05:43:22;13.80;99.90
54832;DHT22;40730;53.068;6.572;2022-09-09T05:45:58;13.80;99.90
54832;DHT22;40730;53.068;6.572;2022-09-09T05:48:31;13.80;99.90
54832;DHT22;40730;53.068;6.572;2022-09-09T05:50:59;13.80;99.90
54832;DHT22;40730;53.068;6.572;2022-09-09T05:53:26;13.70;99.90
54832;DHT22;40730;53.068;6.572;2022-09-09T05:56:10;13.70;99.90
54832;DHT22;40730;53.068;6.572;2022-09-09T05:58:37;13.80;99.90
54832;DHT22;40730;53.068;6.572;2022-09-09T06:01:21;13.80;99.90
54832;DHT22;40730;53.068;6.572;2022-09-09T06:03:48;13.80;99.90
54832;DHT22;40730;53.068;6.572;2022-09-09T06:06:16;13.80;99.90
54832;DHT22;40730;53.068;6.572;2022-09-09T06:08:44;13.70;99.90
54832;DHT22;40730;53.068;6.572;2022-09-09T06:11:23;13.70;99.90
54832;DHT22;40730;53.068;6.572;2022-09-09T06:13:49;13.70;99.90
54832;DHT22;40730;53.068;6.572;2022-09-09T06:16:19;13.80;99.90
54832;DHT22;40730;53.068;6.572;2022-09-09T06:18:45;13.80;99.90
54832;DHT22;40730;53.068;6.572;2022-09-09T06:21:16;13.80;99.90
54832;DHT22;40730;53.068;6.572;2022-09-09T06:23:42;13.80;99.90
54832;DHT22;40730;53.068;6.572;2022-09-09T06:26:19;13.80;99.90
54832;DHT22;40730;53.068;6.572;2022-09-09T06:28:46;13.80;99.90
54832;DHT22;40730;53.068;6.572;2022-09-09T06:31:14;13.80;99.90
54832;DHT22;40730;53.068;6.572;2022-09-09T06:33:43;13.80;99.90
54832;DHT22;40730;53.068;6.572;2022-09-09T06:36:13;13.90;99.90
54832;DHT22;40730;53.068;6.572;2022-09-09T06:38:40;13.90;99.90
54832;DHT22;40730;53.068;6.572;2022-09-09T06:41:08;14.00;99.90
54832;DHT22;40730;53.068;6.572;2022-09-09T06:43:34;14.00;99.90
54832;DHT22;40730;53.068;6.572;2022-09-09T06:46:10;14.10;99.90
54832;DHT22;40730;53.068;6.572;2022-09-09T06:48:36;14.10;99.90
54832;DHT22;40730;53.068;6.572;2022-09-09T06:51:08;14.10;99.90
54832;DHT22;40730;53.068;6.572;2022-09-09T06:53:35;14.10;99.90
54832;DHT22;40730;53.068;6.572;2022-09-09T06:58:49;14.10;99.90
54832;DHT22;40730;53.068;6.572;2022-09-09T07:01:17;14.10;99.90
54832;DHT22;40730;53.068;6.572;2022-09-09T07:03:46;14.10;99.90
54832;DHT22;40730;53.068;6.572;2022-09-09T07:06:18;14.20;99.90
54832;DHT22;40730;53.068;6.572;2022-09-09T07:08:49;14.30;99.90
54832;DHT22;40730;53.068;6.572;2022-09-09T07:11:16;14.30;99.90
54832;DHT22;40730;53.068;6.572;2022-09-09T07:13:41;14.30;99.90
54832;DHT22;40730;53.068;6.572;2022-09-09T07:16:13;14.40;99.90
54832;DHT22;40730;53.068;6.572;2022-09-09T07:18:39;14.40;99.90
54832;DHT22;40730;53.068;6.572;2022-09-09T07:21:05;14.50;99.90
54832;DHT22;40730;53.068;6.572;2022-09-09T07:23:32;14.60;99.90
54832;DHT22;40730;53.068;6.572;2022-09-09T07:25:58;14.60;99.90
54832;DHT22;40730;53.068;6.572;2022-09-09T07:28:25;14.60;99.90
54832;DHT22;40730;53.068;6.572;2022-09-09T07:30:56;14.70;99.90
54832;DHT22;40730;53.068;6.572;2022-09-09T07:33:23;14.80;99.90
54832;DHT22;40730;53.068;6.572;2022-09-09T07:35:49;14.90;99.90
54832;DHT22;40730;53.068;6.572;2022-09-09T07:38:15;15.00;99.90
54832;DHT22;40730;53.068;6.572;2022-09-09T07:40:41;15.10;99.90
54832;DHT22;40730;53.068;6.572;2022-09-09T07:43:07;15.10;99.90
54832;DHT22;40730;53.068;6.572;2022-09-09T07:45:34;15.20;99.90
54832;DHT22;40730;53.068;6.572;2022-09-09T07:48:01;15.30;99.90
54832;DHT22;40730;53.068;6.572;2022-09-09T07:50:27;15.40;99.90
54832;DHT22;40730;53.068;6.572;2022-09-09T07:52:52;15.70;99.90
54832;DHT22;40730;53.068;6.572;2022-09-09T07:55:19;15.80;99.90
54832;DHT22;40730;53.068;6.572;2022-09-09T07:57:45;16.00;99.90
54832;DHT22;40730;53.068;6.572;2022-09-09T08:00:11;16.30;99.90
54832;DHT22;40730;53.068;6.572;2022-09-09T08:02:37;16.60;99.90
54832;DHT22;40730;53.068;6.572;2022-09-09T08:05:03;16.80;99.90
54832;DHT22;40730;53.068;6.572;2022-09-09T08:07:29;17.00;99.90
54832;DHT22;40730;53.068;6.572;2022-09-09T08:09:55;17.20;99.90
54832;DHT22;40730;53.068;6.572;2022-09-09T08:12:21;17.20;99.90
54832;DHT22;40730;53.068;6.572;2022-09-09T08:14:47;17.20;99.90
54832;DHT22;40730;53.068;6.572;2022-09-09T08:17:13;17.30;99.90
54832;DHT22;40730;53.068;6.572;2022-09-09T08:19:39;17.40;99.90
54832;DHT22;40730;53.068;6.572;2022-09-09T08:22:06;17.70;99.90
54832;DHT22;40730;53.068;6.572;2022-09-09T08:24:33;17.70;99.90
54832;DHT22;40730;53.068;6.572;2022-09-09T08:26:58;17.70;99.90
54832;DHT22;40730;53.068;6.572;2022-09-09T08:29:24;17.60;99.90
54832;DHT22;40730;53.068;6.572;2022-09-09T08:31:53;17.80;99.90
54832;DHT22;40730;53.068;6.572;2022-09-09T08:34:20;18.30;99.90
54832;DHT22;40730;53.068;6.572;2022-09-09T08:36:47;18.70;99.90
54832;DHT22;40730;53.068;6.572;2022-09-09T08:39:15;19.10;99.90
54832;DHT22;40730;53.068;6.572;2022-09-09T08:52:18;18.70;99.90
54832;DHT22;40730;53.068;6.572;2022-09-09T08:54:45;18.50;99.90
54832;DHT22;40730;53.068;6.572;2022-09-09T08:57:16;18.30;99.90
54832;DHT22;40730;53.068;6.572;2022-09-09T08:59:43;18.30;99.90
54832;DHT22;40730;53.068;6.572;2022-09-09T09:10:09;18.40;99.90
54832;DHT22;40730;53.068;6.572;2022-09-09T09:12:43;18.30;99.90
54832;DHT22;40730;53.068;6.572;2022-09-09T09:15:21;18.50;99.90
54832;DHT22;40730;53.068;6.572;2022-09-09T09:17:48;18.70;99.90
54832;DHT22;40730;53.068;6.572;2022-09-09T09:20:16;18.80;99.90
54832;DHT22;40730;53.068;6.572;2022-09-09T09:22:50;19.10;99.90
54832;DHT22;40730;53.068;6.572;2022-09-09T09:25:31;19.70;99.90
54832;DHT22;40730;53.068;6.572;2022-09-09T09:28:13;19.50;99.90
54832;DHT22;40730;53.068;6.572;2022-09-09T09:30:58;19.10;99.90
54832;DHT22;40730;53.068;6.572;2022-09-09T09:33:53;18.80;99.90
54832;DHT22;40730;53.068;6.572;2022-09-09T09:36:19;18.90;99.90
54832;DHT22;40730;53.068;6.572;2022-09-09T09:38:54;19.30;99.90
54832;DHT22;40730;53.068;6.572;2022-09-09T09:41:36;19.50;99.90
54832;DHT22;40730;53.068;6.572;2022-09-09T09:44:03;20.00;99.90
54832;DHT22;40730;53.068;6.572;2022-09-09T09:46:30;20.30;99.90
54832;DHT22;40730;53.068;6.572;2022-09-09T09:49:04;20.50;99.90
54832;DHT22;40730;53.068;6.572;2022-09-09T09:51:32;20.60;99.90
54832;DHT22;40730;53.068;6.572;2022-09-09T09:56:43;21.40;99.90
54832;DHT22;40730;53.068;6.572;2022-09-09T10:01:54;21.80;99.90
54832;DHT22;40730;53.068;6.572;2022-09-09T10:04:21;22.20;99.90
54832;DHT22;40730;53.068;6.572;2022-09-09T10:06:49;21.90;99.90
54832;DHT22;40730;53.068;6.572;2022-09-09T10:09:25;21.50;99.90
54832;DHT22;40730;53.068;6.572;2022-09-09T10:12:03;20.90;99.90
54832;DHT22;40730;53.068;6.572;2022-09-09T10:22:47;19.50;99.90
54832;DHT22;40730;53.068;6.572;2022-09-09T10:36:44;20.70;99.90
54832;DHT22;40730;53.068;6.572;2022-09-09T10:42:13;21.30;99.90
54832;DHT22;40730;53.068;6.572;2022-09-09T10:45:01;20.80;99.90
54832;DHT22;40730;53.068;6.572;2022-09-09T10:47:47;20.30;99.90
54832;DHT22;40730;53.068;6.572;2022-09-09T10:53:15;19.90;99.90
54832;DHT22;40730;53.068;6.572;2022-09-09T10:55:56;19.80;99.90
54832;DHT22;40730;53.068;6.572;2022-09-09T10:58:38;19.60;99.90
54832;DHT22;40730;53.068;6.572;2022-09-09T11:04:22;20.20;99.90
54832;DHT22;40730;53.068;6.572;2022-09-09T11:06:53;21.40;99.90
54832;DHT22;40730;53.068;6.572;2022-09-09T11:09:23;22.00;99.90
54832;DHT22;40730;53.068;6.572;2022-09-09T11:11:56;21.80;99.90
54832;DHT22;40730;53.068;6.572;2022-09-09T11:17:06;23.10;99.90
54832;DHT22;40730;53.068;6.572;2022-09-09T11:19:39;23.80;99.90
54832;DHT22;40730;53.068;6.572;2022-09-09T11:22:31;23.70;99.90
54832;DHT22;40730;53.068;6.572;2022-09-09T11:25:08;23.00;97.80
54832;DHT22;40730;53.068;6.572;2022-09-09T11:39:42;21.20;98.80
54832;DHT22;40730;53.068;6.572;2022-09-09T11:42:23;21.20;98.80
54832;DHT22;40730;53.068;6.572;2022-09-09T11:44:49;21.30;99.60
54832;DHT22;40730;53.068;6.572;2022-09-09T11:47:30;21.10;99.70
54832;DHT22;40730;53.068;6.572;2022-09-09T11:52:46;20.70;99.90
54832;DHT22;40730;53.068;6.572;2022-09-09T11:55:30;20.50;99.90
54832;DHT22;40730;53.068;6.572;2022-09-09T12:00:37;20.20;99.90
54832;DHT22;40730;53.068;6.572;2022-09-09T12:03:34;20.00;99.90
54832;DHT22;40730;53.068;6.572;2022-09-09T12:06:44;20.10;99.90
54832;DHT22;40730;53.068;6.572;2022-09-09T12:09:09;19.90;99.90
54832;DHT22;40730;53.068;6.572;2022-09-09T12:11:38;19.80;99.90
54832;DHT22;40730;53.068;6.572;2022-09-09T12:14:03;19.50;99.90
54832;DHT22;40730;53.068;6.572;2022-09-09T12:16:35;19.40;99.90
54832;DHT22;40730;53.068;6.572;2022-09-09T12:19:13;19.30;99.90
54832;DHT22;40730;53.068;6.572;2022-09-09T12:22:03;18.80;99.90
54832;DHT22;40730;53.068;6.572;2022-09-09T12:27:40;18.20;99.90
54832;DHT22;40730;53.068;6.572;2022-09-09T12:30:11;18.20;99.90
54832;DHT22;40730;53.068;6.572;2022-09-09T12:32:37;18.40;99.90
54832;DHT22;40730;53.068;6.572;2022-09-09T12:35:09;18.70;99.90
54832;DHT22;40730;53.068;6.572;2022-09-09T12:37:51;19.30;99.90
54832;DHT22;40730;53.068;6.572;2022-09-09T12:40:35;20.20;99.90
54832;DHT22;40730;53.068;6.572;2022-09-09T12:43:20;21.80;99.90
54832;DHT22;40730;53.068;6.572;2022-09-09T12:45:48;23.10;99.90
54832;DHT22;40730;53.068;6.572;2022-09-09T12:48:17;23.70;99.90
54832;DHT22;40730;53.068;6.572;2022-09-09T12:50:53;24.20;98.50
54832;DHT22;40730;53.068;6.572;2022-09-09T12:56:18;23.60;94.40
54832;DHT22;40730;53.068;6.572;2022-09-09T12:58:47;22.90;95.90
54832;DHT22;40730;53.068;6.572;2022-09-09T13:01:25;22.40;96.60
54832;DHT22;40730;53.068;6.572;2022-09-09T13:03:51;22.00;97.80
54832;DHT22;40730;53.068;6.572;2022-09-09T13:06:23;21.90;97.90
54832;DHT22;40730;53.068;6.572;2022-09-09T13:08:51;21.70;99.00
54832;DHT22;40730;53.068;6.572;2022-09-09T13:11:22;22.20;99.30
54832;DHT22;40730;53.068;6.572;2022-09-09T13:13:52;23.40;96.40
54832;DHT22;40730;53.068;6.572;2022-09-09T13:16:29;24.40;93.50
54832;DHT22;40730;53.068;6.572;2022-09-09T13:19:00;24.90;88.40
54832;DHT22;40730;53.068;6.572;2022-09-09T13:21:38;24.60;89.80
54832;DHT22;40730;53.068;6.572;2022-09-09T13:24:31;23.80;90.60
54832;DHT22;40730;53.068;6.572;2022-09-09T13:26:59;23.00;92.00
54832;DHT22;40730;53.068;6.572;2022-09-09T13:29:27;22.30;92.30
54832;DHT22;40730;53.068;6.572;2022-09-09T13:31:54;22.70;93.40
54832;DHT22;40730;53.068;6.572;2022-09-09T13:34:33;23.10;92.70
54832;DHT22;40730;53.068;6.572;2022-09-09T13:39:58;22.70;93.40
54832;DHT22;40730;53.068;6.572;2022-09-09T13:42:30;23.60;92.60
54832;DHT22;40730;53.068;6.572;2022-09-09T13:44:57;24.50;90.70
54832;DHT22;40730;53.068;6.572;2022-09-09T13:47:31;24.70;84.90
54832;DHT22;40730;53.068;6.572;2022-09-09T13:49:57;24.00;85.60
54832;DHT22;40730;53.068;6.572;2022-09-09T13:52:23;23.10;88.00
54832;DHT22;40730;53.068;6.572;2022-09-09T13:54:50;22.30;90.30
54832;DHT22;40730;53.068;6.572;2022-09-09T13:57:21;21.50;92.40
54832;DHT22;40730;53.068;6.572;2022-09-09T13:59:48;21.00;95.10
54832;DHT22;40730;53.068;6.572;2022-09-09T14:02:15;20.90;97.40
54832;DHT22;40730;53.068;6.572;2022-09-09T14:04:42;21.00;99.40
54832;DHT22;40730;53.068;6.572;2022-09-09T14:07:15;21.10;99.90
54832;DHT22;40730;53.068;6.572;2022-09-09T14:09:41;21.20;99.90
54832;DHT22;40730;53.068;6.572;2022-09-09T14:12:14;21.40;99.40
54832;DHT22;40730;53.068;6.572;2022-09-09T14:14:41;21.40;99.90
54832;DHT22;40730;53.068;6.572;2022-09-09T14:17:08;21.20;99.20
54832;DHT22;40730;53.068;6.572;2022-09-09T14:19:34;20.80;97.60
54832;DHT22;40730;53.068;6.572;2022-09-09T14:22:00;20.40;98.40
54832;DHT22;40730;53.068;6.572;2022-09-09T14:24:26;20.00;99.80
54832;DHT22;40730;53.068;6.572;2022-09-09T14:26:53;19.60;99.90
54832;DHT22;40730;53.068;6.572;2022-09-09T14:29:19;19.00;99.90
54832;DHT22;40730;53.068;6.572;2022-09-09T14:31:44;18.60;99.90
54832;DHT22;40730;53.068;6.572;2022-09-09T14:34:10;18.50;99.90
54832;DHT22;40730;53.068;6.572;2022-09-09T14:36:37;18.60;99.90
54832;DHT22;40730;53.068;6.572;2022-09-09T14:39:03;18.70;99.90
54832;DHT22;40730;53.068;6.572;2022-09-09T14:41:30;18.80;99.90
54832;DHT22;40730;53.068;6.572;2022-09-09T14:43:55;18.90;99.90
54832;DHT22;40730;53.068;6.572;2022-09-09T14:46:22;19.00;99.90
54832;DHT22;40730;53.068;6.572;2022-09-09T14:48:47;19.10;99.90
54832;DHT22;40730;53.068;6.572;2022-09-09T14:51:21;19.20;99.90
54832;DHT22;40730;53.068;6.572;2022-09-09T14:53:55;19.30;99.90
54832;DHT22;40730;53.068;6.572;2022-09-09T14:56:25;19.30;99.90
54832;DHT22;40730;53.068;6.572;2022-09-09T14:58:54;19.30;99.90
54832;DHT22;40730;53.068;6.572;2022-09-09T15:01:20;19.30;99.90
54832;DHT22;40730;53.068;6.572;2022-09-09T15:04:12;19.20;99.90
54832;DHT22;40730;53.068;6.572;2022-09-09T15:06:40;19.10;99.90
54832;DHT22;40730;53.068;6.572;2022-09-09T15:09:08;19.00;99.90
54832;DHT22;40730;53.068;6.572;2022-09-09T15:11:35;19.00;99.90
54832;DHT22;40730;53.068;6.572;2022-09-09T15:14:08;19.00;99.90
54832;DHT22;40730;53.068;6.572;2022-09-09T15:16:34;19.00;99.90
54832;DHT22;40730;53.068;6.572;2022-09-09T15:19:01;19.10;99.90
54832;DHT22;40730;53.068;6.572;2022-09-09T15:21:32;19.10;99.90
54832;DHT22;40730;53.068;6.572;2022-09-09T15:23:59;19.10;99.90
54832;DHT22;40730;53.068;6.572;2022-09-09T15:26:25;19.10;99.90
54832;DHT22;40730;53.068;6.572;2022-09-09T15:28:51;19.10;99.90
54832;DHT22;40730;53.068;6.572;2022-09-09T15:31:19;19.00;99.90
54832;DHT22;40730;53.068;6.572;2022-09-09T15:36:16;18.90;99.90
54832;DHT22;40730;53.068;6.572;2022-09-09T15:38:42;18.90;99.90
54832;DHT22;40730;53.068;6.572;2022-09-09T15:41:09;19.10;99.90
54832;DHT22;40730;53.068;6.572;2022-09-09T15:43:35;19.30;99.90
54832;DHT22;40730;53.068;6.572;2022-09-09T15:48:46;19.60;99.90
54832;DHT22;40730;53.068;6.572;2022-09-09T15:51:11;19.60;99.90
54832;DHT22;40730;53.068;6.572;2022-09-09T15:53:39;19.60;99.90
54832;DHT22;40730;53.068;6.572;2022-09-09T15:56:08;19.70;99.90
54832;DHT22;40730;53.068;6.572;2022-09-09T15:58:35;19.70;99.90
54832;DHT22;40730;53.068;6.572;2022-09-09T16:01:10;19.70;99.90
54832;DHT22;40730;53.068;6.572;2022-09-09T16:03:41;19.50;99.90
54832;DHT22;40730;53.068;6.572;2022-09-09T16:06:14;19.40;99.90
54832;DHT22;40730;53.068;6.572;2022-09-09T16:08:41;19.10;99.90
54832;DHT22;40730;53.068;6.572;2022-09-09T16:11:16;19.00;99.90
54832;DHT22;40730;53.068;6.572;2022-09-09T16:13:44;18.80;99.90
54832;DHT22;40730;53.068;6.572;2022-09-09T16:16:11;18.70;99.90
54832;DHT22;40730;53.068;6.572;2022-09-09T16:18:45;18.60;99.90
54832;DHT22;40730;53.068;6.572;2022-09-09T16:21:17;18.50;99.90
54832;DHT22;40730;53.068;6.572;2022-09-09T16:23:43;18.40;99.90
54832;DHT22;40730;53.068;6.572;2022-09-09T16:26:14;18.30;99.90
54832;DHT22;40730;53.068;6.572;2022-09-09T16:28:41;18.20;99.90
54832;DHT22;40730;53.068;6.572;2022-09-09T16:31:08;18.20;99.90
54832;DHT22;40730;53.068;6.572;2022-09-09T16:33:36;18.10;99.90
54832;DHT22;40730;53.068;6.572;2022-09-09T16:36:09;18.00;99.90
54832;DHT22;40730;53.068;6.572;2022-09-09T16:38:36;18.10;99.90
54832;DHT22;40730;53.068;6.572;2022-09-09T16:41:03;18.00;99.90
54832;DHT22;40730;53.068;6.572;2022-09-09T16:43:30;18.00;99.90
54832;DHT22;40730;53.068;6.572;2022-09-09T16:45:55;18.00;99.90
54832;DHT22;40730;53.068;6.572;2022-09-09T16:48:21;17.90;99.90
54832;DHT22;40730;53.068;6.572;2022-09-09T16:50:47;17.80;99.90
54832;DHT22;40730;53.068;6.572;2022-09-09T16:53:13;17.70;99.90
54832;DHT22;40730;53.068;6.572;2022-09-09T16:55:40;17.70;99.90
54832;DHT22;40730;53.068;6.572;2022-09-09T16:58:08;17.60;99.90
54832;DHT22;40730;53.068;6.572;2022-09-09T17:00:35;17.60;99.90
54832;DHT22;40730;53.068;6.572;2022-09-09T17:03:01;17.60;99.90
54832;DHT22;40730;53.068;6.572;2022-09-09T17:05:28;17.60;99.90
54832;DHT22;40730;53.068;6.572;2022-09-09T17:07:54;17.60;99.90
54832;DHT22;40730;53.068;6.572;2022-09-09T17:10:26;17.50;99.90
54832;DHT22;40730;53.068;6.572;2022-09-09T17:12:52;17.50;99.90
54832;DHT22;40730;53.068;6.572;2022-09-09T17:15:17;17.50;99.90
54832;DHT22;40730;53.068;6.572;2022-09-09T17:17:44;17.50;99.90
54832;DHT22;40730;53.068;6.572;2022-09-09T17:20:10;17.50;99.90
54832;DHT22;40730;53.068;6.572;2022-09-09T17:22:36;17.50;99.90
54832;DHT22;40730;53.068;6.572;2022-09-09T17:25:02;17.40;99.90
54832;DHT22;40730;53.068;6.572;2022-09-09T17:27:28;17.40;99.90
54832;DHT22;40730;53.068;6.572;2022-09-09T17:29:56;17.40;99.90
54832;DHT22;40730;53.068;6.572;2022-09-09T17:32:22;17.40;99.90
54832;DHT22;40730;53.068;6.572;2022-09-09T17:34:48;17.40;99.90
54832;DHT22;40730;53.068;6.572;2022-09-09T17:37:14;17.30;99.90
54832;DHT22;40730;53.068;6.572;2022-09-09T17:39:39;17.30;99.90
54832;DHT22;40730;53.068;6.572;2022-09-09T17:42:05;17.30;99.90